createdAt,value
2023-05-06T00:00:24.602Z,31.45
2023-05-06T00:03:29.114Z,29.32
2023-05-06T00:06:36.041Z,30.25
2023-05-06T00:09:47.812Z,31.27
2023-05-06T00:12:52.085Z,30.40
2023-05-06T00:15:59.031Z,30.92
2023-05-06T00:19:04.469Z,31.45
2023-05-06T00:22:08.469Z,30.76
2023-05-06T00:25:12.397Z,31.04
2023-05-06T00:28:16.774Z,30.13
2023-05-06T00:31:21.496Z,30.88
2023-05-06T00:34:28.134Z,31.15
2023-05-06T00:41:10.779Z,30.14
2023-05-06T00:44:20.609Z,30.98
2023-05-06T00:50:34.652Z,29.91
2023-05-06T00:53:48.843Z,28.61
2023-05-06T00:56:56.072Z,29.17
2023-05-06T01:00:02.912Z,30.99
2023-05-06T01:03:08.325Z,32.67
2023-05-06T01:06:22.458Z,31.02
2023-05-06T01:09:54.284Z,32.32
2023-05-06T01:13:23.561Z,32.25
2023-05-06T01:16:31.762Z,33.51
2023-05-06T01:20:07.252Z,31.82
2023-05-06T01:23:13.965Z,30.87
2023-05-06T01:26:21.677Z,30.57
2023-05-06T01:29:30.821Z,30.87
2023-05-06T01:33:04.514Z,29.96
2023-05-06T01:36:17.719Z,29.71
2023-05-06T01:43:57.992Z,28.84
2023-05-06T01:47:17.407Z,27.09
2023-05-06T01:51:16.682Z,28.45
2023-05-06T01:54:08.514Z,27.65
2023-05-06T01:57:39.919Z,28.81
2023-05-06T02:01:50.799Z,28.00
2023-05-06T02:04:42.948Z,29.48
2023-05-06T02:07:52.252Z,29.65
2023-05-06T02:11:02.366Z,30.17
2023-05-06T02:14:45.724Z,31.60
2023-05-06T02:17:54.784Z,31.17
2023-05-06T02:21:35.188Z,32.12
2023-05-06T02:24:42.962Z,31.75
2023-05-06T02:28:17.401Z,33.18
2023-05-06T02:31:25.436Z,32.24
2023-05-06T02:34:46.035Z,33.88
2023-05-06T02:37:55.715Z,34.04
2023-05-06T02:41:09.590Z,33.92
2023-05-06T02:44:54.781Z,35.04
2023-05-06T02:48:12.444Z,35.25
2023-05-06T02:51:27.797Z,33.99
2023-05-06T02:54:52.613Z,35.25
2023-05-06T02:57:57.564Z,35.49
2023-05-06T03:01:10.212Z,35.12
2023-05-06T03:04:27.124Z,33.83
2023-05-06T03:07:45.404Z,34.51
2023-05-06T03:14:22.452Z,33.92
2023-05-06T03:21:31.198Z,35.41
2023-05-06T03:25:16.834Z,36.19
2023-05-06T03:29:50.437Z,37.21
2023-05-06T03:38:07.604Z,37.25
2023-05-06T03:41:56.640Z,37.00
2023-05-06T03:49:05.970Z,34.42
2023-05-06T03:52:12.582Z,34.54
2023-05-06T03:55:17.405Z,35.11
2023-05-06T03:58:21.886Z,35.50
2023-05-06T04:01:29.721Z,35.27
2023-05-06T04:04:49.693Z,34.17
2023-05-06T04:07:54.271Z,34.36
2023-05-06T04:11:05.968Z,34.39
2023-05-06T04:14:13.676Z,34.64
2023-05-06T04:17:18.501Z,34.42
2023-05-06T04:20:27.382Z,33.59
2023-05-06T04:23:32.815Z,33.49
2023-05-06T04:26:41.227Z,33.78
2023-05-06T04:29:47.072Z,33.13
2023-05-06T04:32:56.177Z,33.69
2023-05-06T04:36:01.181Z,33.88
2023-05-06T04:39:09.709Z,34.02
2023-05-06T04:42:16.969Z,33.83
2023-05-06T04:45:33.881Z,34.15
2023-05-06T04:58:06.620Z,34.22
2023-05-06T05:01:43.055Z,34.99
2023-05-06T05:04:50.060Z,34.78
2023-05-06T05:07:54.684Z,34.45
2023-05-06T05:10:59.497Z,33.86
2023-05-06T05:14:06.786Z,33.57
2023-05-06T05:17:11.393Z,34.35
2023-05-06T05:20:16.753Z,34.05
2023-05-06T05:23:20.746Z,34.53
2023-05-06T05:26:27.464Z,35.00
2023-05-06T05:29:34.633Z,35.07
2023-05-06T05:32:42.433Z,35.43
2023-05-06T05:35:47.302Z,34.29
2023-05-06T05:38:52.429Z,33.30
2023-05-06T05:42:01.911Z,32.65
2023-05-06T05:45:06.193Z,32.21
2023-05-06T05:48:10.468Z,30.84
2023-05-06T05:51:15.411Z,30.94
2023-05-06T05:59:04.662Z,32.34
2023-05-06T06:03:30.357Z,32.35
2023-05-06T06:11:32.009Z,33.67
2023-05-06T06:15:08.953Z,33.82
2023-05-06T06:24:12.734Z,32.76
2023-05-06T06:36:40.651Z,31.75
2023-05-06T06:40:13.012Z,32.26
2023-05-06T06:43:26.862Z,32.38
2023-05-06T06:46:37.243Z,35.24
2023-05-06T06:49:44.742Z,40.21
2023-05-06T06:52:48.702Z,42.33
2023-05-06T06:57:21.172Z,43.84
2023-05-06T07:05:21.631Z,43.65
2023-05-06T07:08:53.947Z,43.42
2023-05-06T07:12:13.036Z,43.03
2023-05-06T07:15:28.621Z,42.74
2023-05-06T07:19:08.589Z,41.57
2023-05-06T07:22:25.425Z,40.18
2023-05-06T07:25:42.139Z,41.63
2023-05-06T07:28:54.346Z,42.49
2023-05-06T07:32:11.236Z,41.63
2023-05-06T07:35:29.217Z,41.27
2023-05-06T07:38:35.691Z,44.89
2023-05-06T07:41:55.351Z,46.34
2023-05-06T07:45:20.047Z,45.00
2023-05-06T07:48:36.438Z,44.42
2023-05-06T07:51:49.189Z,43.02
2023-05-06T07:54:59.902Z,41.61
2023-05-06T08:02:58.328Z,41.30
2023-05-06T08:06:33.118Z,41.14
2023-05-06T08:09:37.712Z,41.37
2023-05-06T08:12:44.728Z,41.23
2023-05-06T08:15:48.985Z,41.50
2023-05-06T08:18:55.821Z,41.49
2023-05-06T08:22:00.040Z,41.71
2023-05-06T08:25:05.809Z,42.50
2023-05-06T08:28:11.773Z,41.63
2023-05-06T08:31:16.263Z,41.67
2023-05-06T08:34:29.776Z,41.37
2023-05-06T08:37:34.853Z,41.98
2023-05-06T08:40:45.912Z,42.27
2023-05-06T08:43:51.392Z,41.74
2023-05-06T08:46:58.124Z,42.26
2023-05-06T08:50:02.464Z,43.37
2023-05-06T08:53:16.200Z,42.62
2023-05-06T08:56:30.156Z,44.95
2023-05-06T08:59:37.162Z,46.52
2023-05-06T09:03:28.385Z,47.67
2023-05-06T09:07:24.251Z,48.05
2023-05-06T09:10:57.101Z,46.88
2023-05-06T09:14:57.827Z,46.07
2023-05-06T09:18:08.910Z,46.72
2023-05-06T09:21:23.388Z,46.76
2023-05-06T09:24:44.568Z,46.03
2023-05-06T09:28:24.171Z,45.30
2023-05-06T09:31:55.864Z,45.01
2023-05-06T09:35:16.216Z,44.93
2023-05-06T09:56:16.803Z,47.13
2023-05-06T09:59:31.640Z,47.72
2023-05-06T10:03:13.521Z,47.76
2023-05-06T10:11:08.775Z,49.16
2023-05-06T10:14:16.190Z,48.14
2023-05-06T10:17:22.421Z,48.15
2023-05-06T10:20:28.703Z,49.64
2023-05-06T10:23:45.346Z,50.70
2023-05-06T10:26:56.371Z,50.85
2023-05-06T10:30:02.780Z,51.31
2023-05-06T10:33:10.436Z,52.23
2023-05-06T10:36:31.063Z,52.07
2023-05-06T10:39:35.563Z,51.57
2023-05-06T10:42:39.738Z,52.40
2023-05-06T10:46:07.904Z,53.53
2023-05-06T10:49:12.747Z,53.08
2023-05-06T10:52:24.864Z,54.41
2023-05-06T10:55:35.710Z,53.99
2023-05-06T10:58:50.633Z,54.59
2023-05-06T11:02:07.241Z,55.36
2023-05-06T11:05:13.261Z,54.71
2023-05-06T11:08:28.529Z,55.83
2023-05-06T11:12:05.798Z,55.39
2023-05-06T11:15:41.485Z,56.51
2023-05-06T11:18:49.870Z,55.38
2023-05-06T11:21:58.657Z,55.66
2023-05-06T11:25:07.688Z,56.11
2023-05-06T11:28:13.868Z,56.55
2023-05-06T11:31:23.182Z,57.31
2023-05-06T11:34:31.557Z,57.20
2023-05-06T11:37:39.016Z,56.50
2023-05-06T11:40:45.588Z,55.75
2023-05-06T11:43:51.189Z,55.96
2023-05-06T11:47:19.145Z,55.76
2023-05-06T11:50:26.426Z,57.31
2023-05-06T11:53:31.706Z,56.80
2023-05-06T11:56:58.131Z,57.72
2023-05-06T12:00:03.175Z,57.23
2023-05-06T12:03:20.919Z,58.57
2023-05-06T12:06:35.545Z,58.44
2023-05-06T12:10:09.845Z,59.43
2023-05-06T12:13:21.813Z,60.28
2023-05-06T12:16:30.474Z,59.72
2023-05-06T12:19:39.536Z,58.28
2023-05-06T12:22:48.916Z,58.10
2023-05-06T12:26:07.404Z,60.86
2023-05-06T12:29:18.143Z,59.89
2023-05-06T12:32:22.883Z,59.96
2023-05-06T12:35:29.505Z,59.69
2023-05-06T12:38:48.100Z,60.06
2023-05-06T12:42:22.119Z,61.70
2023-05-06T12:45:28.650Z,61.56
2023-05-06T12:48:36.697Z,61.81
2023-05-06T12:51:47.639Z,62.26
2023-05-06T12:54:55.801Z,62.05
2023-05-06T12:58:00.061Z,61.66
2023-05-06T13:01:08.673Z,62.33
2023-05-06T13:04:14.437Z,62.09
2023-05-06T13:07:22.105Z,62.62
2023-05-06T13:10:27.124Z,62.80
2023-05-06T13:13:32.145Z,63.89
2023-05-06T13:16:39.789Z,63.49
2023-05-06T13:19:44.145Z,63.05
2023-05-06T13:22:54.666Z,62.77
2023-05-06T13:26:04.244Z,63.61
2023-05-06T13:29:11.800Z,63.97
2023-05-06T13:32:25.544Z,63.58
2023-05-06T13:35:32.663Z,63.91
2023-05-06T13:38:43.681Z,64.23
2023-05-06T13:41:50.887Z,63.65
2023-05-06T13:44:55.475Z,63.52
2023-05-06T13:48:02.222Z,64.14
2023-05-06T13:51:09.824Z,65.14
2023-05-06T13:54:17.137Z,64.55
2023-05-06T13:57:23.055Z,65.84
2023-05-06T14:00:29.694Z,67.44
2023-05-06T14:03:33.955Z,68.41
2023-05-06T14:06:45.757Z,64.60
2023-05-06T14:09:52.850Z,64.97
2023-05-06T14:13:02.744Z,64.15
2023-05-06T14:16:11.220Z,65.37
2023-05-06T14:19:17.551Z,64.31
2023-05-06T14:22:26.651Z,63.80
2023-05-06T14:25:33.190Z,64.14
2023-05-06T14:28:37.221Z,64.66
2023-05-06T14:31:48.047Z,64.03
2023-05-06T14:34:52.032Z,65.79
2023-05-06T14:37:56.700Z,67.60
2023-05-06T14:41:01.889Z,68.79
2023-05-06T14:44:07.368Z,69.54
2023-05-06T14:47:11.801Z,70.31
2023-05-06T14:50:19.592Z,69.16
2023-05-06T14:53:26.850Z,68.61
2023-05-06T14:56:31.321Z,67.69
2023-05-06T14:59:36.058Z,68.23
2023-05-06T15:02:42.570Z,66.65
2023-05-06T15:05:47.201Z,66.64
2023-05-06T15:08:57.220Z,67.14
2023-05-06T15:12:02.640Z,67.46
2023-05-06T15:15:07.849Z,67.12
2023-05-06T15:18:14.145Z,68.00
2023-05-06T15:21:18.776Z,67.57
2023-05-06T15:24:23.703Z,68.34
2023-05-06T15:27:32.808Z,68.43
2023-05-06T15:30:39.285Z,66.94
2023-05-06T15:33:46.823Z,68.25
2023-05-06T15:36:55.249Z,69.06
2023-05-06T15:39:59.336Z,70.32
2023-05-06T15:43:06.364Z,70.09
2023-05-06T15:46:13.787Z,69.54
2023-05-06T15:49:47.452Z,70.53
2023-05-06T15:52:46.488Z,73.43
2023-05-06T15:55:57.218Z,72.30
2023-05-06T15:59:09.146Z,73.23
2023-05-06T16:05:23.895Z,73.33
2023-05-06T16:08:28.460Z,73.98
2023-05-06T16:11:32.992Z,75.04
2023-05-06T16:14:39.894Z,75.55
2023-05-06T16:17:44.611Z,75.21
2023-05-06T16:20:50.076Z,73.94
2023-05-06T16:23:54.579Z,75.59
2023-05-06T16:27:28.980Z,74.98
2023-05-06T16:30:33.252Z,73.41
2023-05-06T16:33:38.126Z,71.82
2023-05-06T16:36:42.677Z,71.75
2023-05-06T16:39:46.654Z,72.22
2023-05-06T16:42:53.242Z,71.51
2023-05-06T16:45:57.764Z,70.89
2023-05-06T16:49:04.683Z,70.82
2023-05-06T16:52:08.983Z,71.13
2023-05-06T16:55:13.585Z,73.04
2023-05-06T16:58:17.470Z,72.58
2023-05-06T17:01:22.179Z,72.32
2023-05-06T17:04:25.882Z,72.08
2023-05-06T17:07:33.330Z,71.95
2023-05-06T17:10:37.666Z,70.95
2023-05-06T17:13:41.871Z,72.24
2023-05-06T17:16:46.537Z,72.85
2023-05-06T17:19:50.609Z,72.03
2023-05-06T17:22:55.120Z,72.10
2023-05-06T17:25:59.664Z,72.15
2023-05-06T17:29:14.130Z,71.95
2023-05-06T17:32:21.258Z,73.17
2023-05-06T17:35:25.870Z,73.40
2023-05-06T17:38:31.417Z,74.45
2023-05-06T17:41:38.398Z,74.06
2023-05-06T17:44:45.353Z,72.81
2023-05-06T17:47:50.894Z,72.61
2023-05-06T17:51:06.807Z,73.28
2023-05-06T17:54:11.381Z,71.61
2023-05-06T17:57:17.165Z,73.23
2023-05-06T18:00:21.153Z,74.32
2023-05-06T18:03:25.205Z,73.06
2023-05-06T18:06:32.730Z,73.11
2023-05-06T18:09:38.684Z,73.13
2023-05-06T18:12:48.871Z,72.59
2023-05-06T18:15:53.487Z,72.32
2023-05-06T18:18:58.365Z,72.06
2023-05-06T18:22:02.723Z,71.92
2023-05-06T18:25:08.168Z,71.51
2023-05-06T18:28:12.901Z,71.21
2023-05-06T18:31:41.581Z,72.77
2023-05-06T18:34:48.908Z,72.39
2023-05-06T18:37:57.636Z,72.49
2023-05-06T18:41:04.137Z,72.55
2023-05-06T18:44:08.978Z,73.58
2023-05-06T18:47:13.333Z,72.39
2023-05-06T18:50:20.941Z,72.30
2023-05-06T18:53:25.527Z,72.11
2023-05-06T18:56:31.142Z,71.62
2023-05-06T18:59:37.482Z,71.69
2023-05-06T19:02:42.139Z,71.57
2023-05-06T19:05:49.093Z,72.11
2023-05-06T19:08:54.471Z,71.94
2023-05-06T19:11:58.732Z,72.77
2023-05-06T19:15:03.039Z,72.88
2023-05-06T19:18:08.223Z,72.57
2023-05-06T19:21:13.646Z,72.12
2023-05-06T19:24:18.084Z,73.42
2023-05-06T19:27:22.597Z,72.42
2023-05-06T19:30:32.598Z,72.09
2023-05-06T19:33:45.971Z,70.76
2023-05-06T19:36:55.639Z,72.13
2023-05-06T19:40:10.050Z,73.82
2023-05-06T19:43:16.856Z,73.44
2023-05-06T19:46:30.453Z,74.89
2023-05-06T19:49:40.589Z,74.65
2023-05-06T19:52:59.016Z,74.41
2023-05-06T19:56:50.412Z,73.97
2023-05-06T20:00:12.522Z,72.26
2023-05-06T20:03:19.678Z,70.87
2023-05-06T20:06:38.036Z,69.70
2023-05-06T20:09:57.670Z,69.59
2023-05-06T20:13:08.024Z,69.02
2023-05-06T20:16:17.288Z,69.27
2023-05-06T20:19:53.351Z,68.75
2023-05-06T20:22:59.757Z,69.66
2023-05-06T20:26:06.688Z,69.52
2023-05-06T20:29:11.129Z,69.42
2023-05-06T20:32:28.684Z,69.44
2023-05-06T20:35:41.702Z,70.53
2023-05-06T20:43:01.911Z,70.10
2023-05-06T20:46:07.589Z,69.97
2023-05-06T20:49:12.622Z,68.50
2023-05-06T20:52:25.320Z,68.03
2023-05-06T20:55:43.971Z,67.91
2023-05-06T20:58:50.522Z,69.69
2023-05-06T21:01:59.587Z,68.72
2023-05-06T21:05:05.443Z,68.13
2023-05-06T21:08:14.310Z,68.12
2023-05-06T21:11:19.956Z,68.93
2023-05-06T21:14:31.058Z,68.62
2023-05-06T21:17:40.065Z,68.66
2023-05-06T21:21:01.593Z,69.08
2023-05-06T21:24:12.683Z,69.26
2023-05-06T21:27:19.117Z,70.33
2023-05-06T21:30:25.521Z,68.51
2023-05-06T21:33:30.021Z,67.80
2023-05-06T21:36:39.464Z,67.52
2023-05-06T21:40:05.158Z,66.42
2023-05-06T21:43:26.593Z,65.00
2023-05-06T21:46:35.810Z,65.07
2023-05-06T21:50:08.399Z,65.07
2023-05-06T21:53:14.073Z,64.37
2023-05-06T21:56:23.815Z,63.23
2023-05-06T21:59:29.599Z,62.13
2023-05-06T22:02:46.495Z,60.26
2023-05-06T22:05:53.267Z,59.58
2023-05-06T22:09:09.729Z,57.48
2023-05-06T22:12:19.829Z,56.61
2023-05-06T22:19:35.290Z,52.04
2023-05-06T22:22:45.349Z,52.58
2023-05-06T22:25:49.929Z,50.91
2023-05-06T22:28:56.391Z,49.92
2023-05-06T22:32:06.906Z,48.44
2023-05-06T22:35:14.857Z,46.64
2023-05-06T22:38:19.721Z,45.87
2023-05-06T22:41:24.387Z,45.41
2023-05-06T22:45:15.650Z,44.64
2023-05-06T22:50:01.201Z,42.09
2023-05-06T22:53:38.589Z,39.45
2023-05-06T22:56:46.464Z,40.02
2023-05-06T22:59:50.905Z,40.10
2023-05-06T23:02:55.413Z,38.92
2023-05-06T23:05:59.325Z,39.41
2023-05-06T23:09:06.470Z,40.84
2023-05-06T23:12:10.930Z,40.58
2023-05-06T23:15:33.330Z,41.53
2023-05-06T23:18:47.055Z,41.49
2023-05-06T23:21:51.406Z,40.23
2023-05-06T23:24:56.723Z,39.76
2023-05-06T23:28:01.098Z,40.14
2023-05-06T23:31:05.622Z,40.38
2023-05-06T23:34:10.036Z,38.64
2023-05-06T23:37:20.087Z,38.23
2023-05-06T23:40:24.536Z,37.28
2023-05-06T23:43:29.035Z,36.22
2023-05-06T23:46:33.652Z,36.60
2023-05-06T23:49:38.126Z,36.25
2023-05-06T23:52:42.614Z,35.90
2023-05-06T23:55:50.179Z,35.25
2023-05-06T23:58:57.456Z,33.89
